sensor_id;sensor_type;location;lat;lon;timestamp;P1;durP1;ratioP1;P2;durP2;ratioP2
51459;SDS011;37534;39.772;2.718;2023-07-22T00:00:43;18.50;;;5.85;;
51459;SDS011;37534;39.772;2.718;2023-07-22T00:03:08;19.02;;;5.00;;
51459;SDS011;37534;39.772;2.718;2023-07-22T00:05:34;13.02;;;5.53;;
51459;SDS011;37534;39.772;2.718;2023-07-22T00:07:59;10.75;;;5.50;;
51459;SDS011;37534;39.772;2.718;2023-07-22T00:10:25;21.75;;;5.90;;
51459;SDS011;37534;39.772;2.718;2023-07-22T00:12:50;12.20;;;6.15;;
51459;SDS011;37534;39.772;2.718;2023-07-22T00:15:16;9.15;;;5.10;;
51459;SDS011;37534;39.772;2.718;2023-07-22T00:17:42;18.70;;;4.97;;
51459;SDS011;37534;39.772;2.718;2023-07-22T00:20:08;11.88;;;5.22;;
51459;SDS011;37534;39.772;2.718;2023-07-22T00:22:38;12.82;;;6.22;;
51459;SDS011;37534;39.772;2.718;2023-07-22T00:25:08;15.45;;;5.55;;
51459;SDS011;37534;39.772;2.718;2023-07-22T00:27:36;20.85;;;5.57;;
51459;SDS011;37534;39.772;2.718;2023-07-22T00:30:03;9.00;;;5.28;;
51459;SDS011;37534;39.772;2.718;2023-07-22T00:32:30;11.48;;;4.78;;
51459;SDS011;37534;39.772;2.718;2023-07-22T00:34:55;19.95;;;6.35;;
51459;SDS011;37534;39.772;2.718;2023-07-22T00:37:21;11.95;;;5.45;;
51459;SDS011;37534;39.772;2.718;2023-07-22T00:39:47;15.82;;;6.00;;
51459;SDS011;37534;39.772;2.718;2023-07-22T00:42:13;14.13;;;5.45;;
51459;SDS011;37534;39.772;2.718;2023-07-22T00:44:38;10.85;;;5.30;;
51459;SDS011;37534;39.772;2.718;2023-07-22T00:47:04;18.98;;;5.72;;
51459;SDS011;37534;39.772;2.718;2023-07-22T00:49:29;15.02;;;5.90;;
51459;SDS011;37534;39.772;2.718;2023-07-22T00:51:57;11.18;;;5.93;;
51459;SDS011;37534;39.772;2.718;2023-07-22T00:54:29;16.83;;;5.70;;
51459;SDS011;37534;39.772;2.718;2023-07-22T00:56:56;8.88;;;5.55;;
51459;SDS011;37534;39.772;2.718;2023-07-22T00:59:22;12.75;;;5.57;;
51459;SDS011;37534;39.772;2.718;2023-07-22T01:01:49;11.90;;;6.20;;
51459;SDS011;37534;39.772;2.718;2023-07-22T01:04:15;11.00;;;5.75;;
51459;SDS011;37534;39.772;2.718;2023-07-22T01:06:44;15.60;;;5.78;;
51459;SDS011;37534;39.772;2.718;2023-07-22T01:09:11;14.00;;;6.35;;
51459;SDS011;37534;39.772;2.718;2023-07-22T01:11:38;15.05;;;6.72;;
51459;SDS011;37534;39.772;2.718;2023-07-22T01:14:04;12.27;;;6.22;;
51459;SDS011;37534;39.772;2.718;2023-07-22T01:16:29;15.00;;;5.78;;
51459;SDS011;37534;39.772;2.718;2023-07-22T01:18:55;17.08;;;6.13;;
51459;SDS011;37534;39.772;2.718;2023-07-22T01:21:25;10.43;;;6.25;;
51459;SDS011;37534;39.772;2.718;2023-07-22T01:23:51;9.70;;;6.43;;
51459;SDS011;37534;39.772;2.718;2023-07-22T01:26:18;13.10;;;6.47;;
51459;SDS011;37534;39.772;2.718;2023-07-22T01:28:44;16.52;;;7.15;;
51459;SDS011;37534;39.772;2.718;2023-07-22T01:31:10;21.80;;;6.40;;
51459;SDS011;37534;39.772;2.718;2023-07-22T01:33:35;15.57;;;6.70;;
51459;SDS011;37534;39.772;2.718;2023-07-22T01:36:03;10.95;;;5.47;;
51459;SDS011;37534;39.772;2.718;2023-07-22T01:38:28;7.38;;;5.60;;
51459;SDS011;37534;39.772;2.718;2023-07-22T01:40:54;8.80;;;6.00;;
51459;SDS011;37534;39.772;2.718;2023-07-22T01:43:20;10.57;;;5.75;;
51459;SDS011;37534;39.772;2.718;2023-07-22T01:45:46;9.90;;;5.65;;
51459;SDS011;37534;39.772;2.718;2023-07-22T01:48:12;17.13;;;6.45;;
51459;SDS011;37534;39.772;2.718;2023-07-22T01:50:37;18.15;;;6.13;;
51459;SDS011;37534;39.772;2.718;2023-07-22T01:53:03;11.60;;;5.82;;
51459;SDS011;37534;39.772;2.718;2023-07-22T01:55:30;9.02;;;5.60;;
51459;SDS011;37534;39.772;2.718;2023-07-22T01:57:57;14.02;;;5.63;;
51459;SDS011;37534;39.772;2.718;2023-07-22T02:00:23;9.20;;;5.43;;
51459;SDS011;37534;39.772;2.718;2023-07-22T02:02:48;13.05;;;5.75;;
51459;SDS011;37534;39.772;2.718;2023-07-22T02:05:14;11.23;;;5.65;;
51459;SDS011;37534;39.772;2.718;2023-07-22T02:07:40;9.70;;;5.88;;
51459;SDS011;37534;39.772;2.718;2023-07-22T02:10:06;9.30;;;5.55;;
51459;SDS011;37534;39.772;2.718;2023-07-22T02:12:32;9.43;;;5.50;;
51459;SDS011;37534;39.772;2.718;2023-07-22T02:14:57;10.32;;;5.93;;
51459;SDS011;37534;39.772;2.718;2023-07-22T02:17:23;8.25;;;5.43;;
51459;SDS011;37534;39.772;2.718;2023-07-22T02:19:48;12.55;;;5.82;;
51459;SDS011;37534;39.772;2.718;2023-07-22T02:22:14;7.78;;;5.00;;
51459;SDS011;37534;39.772;2.718;2023-07-22T02:24:40;16.13;;;5.85;;
51459;SDS011;37534;39.772;2.718;2023-07-22T02:27:06;12.43;;;5.13;;
51459;SDS011;37534;39.772;2.718;2023-07-22T02:29:33;11.90;;;5.82;;
51459;SDS011;37534;39.772;2.718;2023-07-22T02:31:59;15.77;;;6.18;;
51459;SDS011;37534;39.772;2.718;2023-07-22T02:34:25;11.25;;;4.97;;
51459;SDS011;37534;39.772;2.718;2023-07-22T02:36:50;11.55;;;7.32;;
51459;SDS011;37534;39.772;2.718;2023-07-22T02:39:16;10.85;;;6.63;;
51459;SDS011;37534;39.772;2.718;2023-07-22T02:41:41;5.82;;;5.20;;
51459;SDS011;37534;39.772;2.718;2023-07-22T02:44:07;13.02;;;5.82;;
51459;SDS011;37534;39.772;2.718;2023-07-22T02:46:33;11.50;;;5.88;;
51459;SDS011;37534;39.772;2.718;2023-07-22T02:48:58;12.07;;;5.70;;
51459;SDS011;37534;39.772;2.718;2023-07-22T02:51:24;6.20;;;5.60;;
51459;SDS011;37534;39.772;2.718;2023-07-22T02:53:50;7.90;;;5.30;;
51459;SDS011;37534;39.772;2.718;2023-07-22T02:56:15;8.73;;;5.45;;
51459;SDS011;37534;39.772;2.718;2023-07-22T02:58:41;11.10;;;6.57;;
51459;SDS011;37534;39.772;2.718;2023-07-22T03:01:07;10.88;;;5.95;;
51459;SDS011;37534;39.772;2.718;2023-07-22T03:03:34;13.88;;;6.40;;
51459;SDS011;37534;39.772;2.718;2023-07-22T03:06:00;17.20;;;5.68;;
51459;SDS011;37534;39.772;2.718;2023-07-22T03:08:27;9.32;;;5.13;;
51459;SDS011;37534;39.772;2.718;2023-07-22T03:10:52;9.93;;;5.15;;
51459;SDS011;37534;39.772;2.718;2023-07-22T03:13:18;10.35;;;5.68;;
51459;SDS011;37534;39.772;2.718;2023-07-22T03:15:44;13.05;;;5.85;;
51459;SDS011;37534;39.772;2.718;2023-07-22T03:18:09;8.73;;;5.70;;
51459;SDS011;37534;39.772;2.718;2023-07-22T03:20:36;15.25;;;5.03;;
51459;SDS011;37534;39.772;2.718;2023-07-22T03:23:02;13.48;;;4.95;;
51459;SDS011;37534;39.772;2.718;2023-07-22T03:25:29;12.70;;;5.55;;
51459;SDS011;37534;39.772;2.718;2023-07-22T03:27:54;8.90;;;5.55;;
51459;SDS011;37534;39.772;2.718;2023-07-22T03:30:21;9.38;;;6.22;;
51459;SDS011;37534;39.772;2.718;2023-07-22T03:32:48;11.73;;;5.65;;
51459;SDS011;37534;39.772;2.718;2023-07-22T03:35:16;8.70;;;6.82;;
51459;SDS011;37534;39.772;2.718;2023-07-22T03:37:42;10.50;;;5.43;;
51459;SDS011;37534;39.772;2.718;2023-07-22T03:40:08;10.85;;;5.57;;
51459;SDS011;37534;39.772;2.718;2023-07-22T03:42:52;6.18;;;5.20;;
51459;SDS011;37534;39.772;2.718;2023-07-22T03:45:19;12.20;;;5.82;;
51459;SDS011;37534;39.772;2.718;2023-07-22T03:47:47;8.32;;;5.55;;
51459;SDS011;37534;39.772;2.718;2023-07-22T03:50:15;6.25;;;5.57;;
51459;SDS011;37534;39.772;2.718;2023-07-22T03:52:41;14.65;;;6.18;;
51459;SDS011;37534;39.772;2.718;2023-07-22T03:55:07;7.70;;;5.55;;
51459;SDS011;37534;39.772;2.718;2023-07-22T03:57:33;12.93;;;6.63;;
51459;SDS011;37534;39.772;2.718;2023-07-22T03:59:58;7.38;;;6.03;;
51459;SDS011;37534;39.772;2.718;2023-07-22T04:02:24;9.13;;;6.40;;
51459;SDS011;37534;39.772;2.718;2023-07-22T04:04:50;10.82;;;6.43;;
51459;SDS011;37534;39.772;2.718;2023-07-22T04:07:17;9.10;;;6.70;;
51459;SDS011;37534;39.772;2.718;2023-07-22T04:09:43;7.20;;;5.47;;
51459;SDS011;37534;39.772;2.718;2023-07-22T04:12:10;8.65;;;5.97;;
51459;SDS011;37534;39.772;2.718;2023-07-22T04:14:35;12.18;;;6.72;;
51459;SDS011;37534;39.772;2.718;2023-07-22T04:17:01;9.30;;;5.80;;
51459;SDS011;37534;39.772;2.718;2023-07-22T04:19:29;9.23;;;6.18;;
51459;SDS011;37534;39.772;2.718;2023-07-22T04:21:55;11.50;;;6.07;;
51459;SDS011;37534;39.772;2.718;2023-07-22T04:24:20;11.68;;;6.38;;
51459;SDS011;37534;39.772;2.718;2023-07-22T04:26:46;15.02;;;7.72;;
51459;SDS011;37534;39.772;2.718;2023-07-22T04:29:11;9.05;;;6.55;;
51459;SDS011;37534;39.772;2.718;2023-07-22T04:31:37;7.40;;;6.47;;
51459;SDS011;37534;39.772;2.718;2023-07-22T04:34:03;6.60;;;5.47;;
51459;SDS011;37534;39.772;2.718;2023-07-22T04:36:30;13.82;;;6.88;;
51459;SDS011;37534;39.772;2.718;2023-07-22T04:38:55;11.65;;;5.75;;
51459;SDS011;37534;39.772;2.718;2023-07-22T04:41:21;10.32;;;6.40;;
51459;SDS011;37534;39.772;2.718;2023-07-22T04:43:47;10.50;;;6.35;;
51459;SDS011;37534;39.772;2.718;2023-07-22T04:46:12;11.80;;;6.28;;
51459;SDS011;37534;39.772;2.718;2023-07-22T04:48:38;7.93;;;6.07;;
51459;SDS011;37534;39.772;2.718;2023-07-22T04:51:04;8.05;;;6.00;;
51459;SDS011;37534;39.772;2.718;2023-07-22T04:53:29;11.55;;;6.22;;
51459;SDS011;37534;39.772;2.718;2023-07-22T04:55:55;14.13;;;6.50;;
51459;SDS011;37534;39.772;2.718;2023-07-22T04:58:21;9.43;;;6.82;;
51459;SDS011;37534;39.772;2.718;2023-07-22T05:00:47;8.57;;;5.38;;
51459;SDS011;37534;39.772;2.718;2023-07-22T05:03:13;15.43;;;7.32;;
51459;SDS011;37534;39.772;2.718;2023-07-22T05:05:39;14.95;;;6.72;;
51459;SDS011;37534;39.772;2.718;2023-07-22T05:08:05;8.95;;;6.53;;
51459;SDS011;37534;39.772;2.718;2023-07-22T05:10:32;11.57;;;5.88;;
51459;SDS011;37534;39.772;2.718;2023-07-22T05:12:57;17.45;;;7.10;;
51459;SDS011;37534;39.772;2.718;2023-07-22T05:15:23;18.08;;;6.95;;
51459;SDS011;37534;39.772;2.718;2023-07-22T05:17:49;11.50;;;6.97;;
51459;SDS011;37534;39.772;2.718;2023-07-22T05:20:14;7.70;;;6.15;;
51459;SDS011;37534;39.772;2.718;2023-07-22T05:22:40;13.82;;;7.22;;
51459;SDS011;37534;39.772;2.718;2023-07-22T05:25:06;11.38;;;6.45;;
51459;SDS011;37534;39.772;2.718;2023-07-22T05:27:32;12.48;;;6.70;;
51459;SDS011;37534;39.772;2.718;2023-07-22T05:29:58;8.45;;;5.72;;
51459;SDS011;37534;39.772;2.718;2023-07-22T05:32:24;10.90;;;6.55;;
51459;SDS011;37534;39.772;2.718;2023-07-22T05:34:50;13.10;;;6.45;;
51459;SDS011;37534;39.772;2.718;2023-07-22T05:37:15;8.65;;;6.40;;
51459;SDS011;37534;39.772;2.718;2023-07-22T05:39:41;8.90;;;5.90;;
51459;SDS011;37534;39.772;2.718;2023-07-22T05:42:06;9.57;;;7.13;;
51459;SDS011;37534;39.772;2.718;2023-07-22T05:44:32;7.60;;;6.55;;
51459;SDS011;37534;39.772;2.718;2023-07-22T05:46:57;7.95;;;6.72;;
51459;SDS011;37534;39.772;2.718;2023-07-22T05:49:23;10.52;;;6.93;;
51459;SDS011;37534;39.772;2.718;2023-07-22T05:51:49;17.90;;;6.53;;
51459;SDS011;37534;39.772;2.718;2023-07-22T05:54:14;10.10;;;4.43;;
51459;SDS011;37534;39.772;2.718;2023-07-22T05:56:40;10.45;;;4.82;;
51459;SDS011;37534;39.772;2.718;2023-07-22T05:59:06;15.07;;;4.75;;
51459;SDS011;37534;39.772;2.718;2023-07-22T06:01:32;9.95;;;4.25;;
51459;SDS011;37534;39.772;2.718;2023-07-22T06:03:57;8.52;;;4.47;;
51459;SDS011;37534;39.772;2.718;2023-07-22T06:06:23;8.98;;;3.70;;
51459;SDS011;37534;39.772;2.718;2023-07-22T06:08:49;14.15;;;4.00;;
51459;SDS011;37534;39.772;2.718;2023-07-22T06:11:14;9.45;;;4.68;;
51459;SDS011;37534;39.772;2.718;2023-07-22T06:13:40;13.05;;;4.07;;
51459;SDS011;37534;39.772;2.718;2023-07-22T06:16:05;13.15;;;3.65;;
51459;SDS011;37534;39.772;2.718;2023-07-22T06:18:31;7.43;;;3.55;;
51459;SDS011;37534;39.772;2.718;2023-07-22T06:20:56;14.50;;;4.63;;
51459;SDS011;37534;39.772;2.718;2023-07-22T06:23:22;13.07;;;4.40;;
51459;SDS011;37534;39.772;2.718;2023-07-22T06:25:48;11.18;;;4.70;;
51459;SDS011;37534;39.772;2.718;2023-07-22T06:28:15;8.88;;;4.28;;
51459;SDS011;37534;39.772;2.718;2023-07-22T06:30:40;9.13;;;3.67;;
51459;SDS011;37534;39.772;2.718;2023-07-22T06:33:06;11.52;;;4.40;;
51459;SDS011;37534;39.772;2.718;2023-07-22T06:35:31;13.48;;;4.80;;
51459;SDS011;37534;39.772;2.718;2023-07-22T06:37:57;8.57;;;4.30;;
51459;SDS011;37534;39.772;2.718;2023-07-22T06:40:24;10.43;;;4.60;;
51459;SDS011;37534;39.772;2.718;2023-07-22T06:42:50;9.55;;;4.07;;
51459;SDS011;37534;39.772;2.718;2023-07-22T06:45:15;15.57;;;4.63;;
51459;SDS011;37534;39.772;2.718;2023-07-22T06:47:41;13.93;;;4.82;;
51459;SDS011;37534;39.772;2.718;2023-07-22T06:50:07;8.63;;;4.30;;
51459;SDS011;37534;39.772;2.718;2023-07-22T06:52:32;8.13;;;3.58;;
51459;SDS011;37534;39.772;2.718;2023-07-22T06:54:58;12.27;;;4.15;;
51459;SDS011;37534;39.772;2.718;2023-07-22T06:57:24;11.45;;;5.25;;
51459;SDS011;37534;39.772;2.718;2023-07-22T06:59:53;12.27;;;4.03;;
51459;SDS011;37534;39.772;2.718;2023-07-22T07:02:19;16.48;;;5.18;;
51459;SDS011;37534;39.772;2.718;2023-07-22T07:04:44;7.65;;;4.80;;
51459;SDS011;37534;39.772;2.718;2023-07-22T07:07:10;9.27;;;4.22;;
51459;SDS011;37534;39.772;2.718;2023-07-22T07:09:37;17.35;;;4.88;;
51459;SDS011;37534;39.772;2.718;2023-07-22T07:12:03;9.27;;;4.50;;
51459;SDS011;37534;39.772;2.718;2023-07-22T07:14:29;8.88;;;4.15;;
51459;SDS011;37534;39.772;2.718;2023-07-22T07:16:55;13.18;;;5.22;;
51459;SDS011;37534;39.772;2.718;2023-07-22T07:19:20;10.80;;;4.75;;
51459;SDS011;37534;39.772;2.718;2023-07-22T07:21:46;7.93;;;4.53;;
51459;SDS011;37534;39.772;2.718;2023-07-22T07:24:12;14.60;;;5.10;;
51459;SDS011;37534;39.772;2.718;2023-07-22T07:26:38;12.68;;;4.80;;
51459;SDS011;37534;39.772;2.718;2023-07-22T07:29:03;10.77;;;5.28;;
51459;SDS011;37534;39.772;2.718;2023-07-22T07:31:29;18.27;;;4.82;;
51459;SDS011;37534;39.772;2.718;2023-07-22T07:33:55;6.03;;;3.67;;
51459;SDS011;37534;39.772;2.718;2023-07-22T07:36:21;11.10;;;4.38;;
51459;SDS011;37534;39.772;2.718;2023-07-22T07:38:46;7.65;;;3.60;;
51459;SDS011;37534;39.772;2.718;2023-07-22T07:41:12;11.25;;;4.28;;
51459;SDS011;37534;39.772;2.718;2023-07-22T07:43:39;13.93;;;4.60;;
51459;SDS011;37534;39.772;2.718;2023-07-22T07:48:54;18.48;;;4.85;;
51459;SDS011;37534;39.772;2.718;2023-07-22T07:51:27;11.60;;;5.00;;
51459;SDS011;37534;39.772;2.718;2023-07-22T07:53:55;9.52;;;4.75;;
51459;SDS011;37534;39.772;2.718;2023-07-22T07:56:21;6.75;;;4.43;;
51459;SDS011;37534;39.772;2.718;2023-07-22T07:58:48;16.40;;;5.28;;
51459;SDS011;37534;39.772;2.718;2023-07-22T08:01:15;6.47;;;4.50;;
51459;SDS011;37534;39.772;2.718;2023-07-22T08:03:41;7.30;;;4.47;;
51459;SDS011;37534;39.772;2.718;2023-07-22T08:06:08;7.18;;;5.15;;
51459;SDS011;37534;39.772;2.718;2023-07-22T08:08:35;13.85;;;4.85;;
51459;SDS011;37534;39.772;2.718;2023-07-22T08:13:29;10.05;;;5.10;;
51459;SDS011;37534;39.772;2.718;2023-07-22T08:15:56;12.13;;;5.10;;
51459;SDS011;37534;39.772;2.718;2023-07-22T08:18:25;12.18;;;5.30;;
51459;SDS011;37534;39.772;2.718;2023-07-22T08:20:51;8.85;;;5.05;;
51459;SDS011;37534;39.772;2.718;2023-07-22T08:23:18;9.85;;;4.90;;
51459;SDS011;37534;39.772;2.718;2023-07-22T08:25:44;11.95;;;4.90;;
51459;SDS011;37534;39.772;2.718;2023-07-22T08:28:10;9.85;;;5.32;;
51459;SDS011;37534;39.772;2.718;2023-07-22T08:30:35;9.00;;;4.82;;
51459;SDS011;37534;39.772;2.718;2023-07-22T08:33:01;9.25;;;4.78;;
51459;SDS011;37534;39.772;2.718;2023-07-22T08:35:26;10.38;;;5.13;;
51459;SDS011;37534;39.772;2.718;2023-07-22T08:37:52;9.95;;;4.90;;
51459;SDS011;37534;39.772;2.718;2023-07-22T08:40:19;10.90;;;4.85;;
51459;SDS011;37534;39.772;2.718;2023-07-22T08:42:45;10.23;;;4.88;;
51459;SDS011;37534;39.772;2.718;2023-07-22T08:45:12;17.23;;;5.57;;
51459;SDS011;37534;39.772;2.718;2023-07-22T08:47:43;12.75;;;5.18;;
51459;SDS011;37534;39.772;2.718;2023-07-22T08:50:11;9.00;;;5.40;;
51459;SDS011;37534;39.772;2.718;2023-07-22T08:52:42;14.07;;;5.32;;
51459;SDS011;37534;39.772;2.718;2023-07-22T08:55:09;7.43;;;4.53;;
51459;SDS011;37534;39.772;2.718;2023-07-22T08:57:35;12.43;;;4.60;;
51459;SDS011;37534;39.772;2.718;2023-07-22T09:00:02;12.88;;;5.57;;
51459;SDS011;37534;39.772;2.718;2023-07-22T09:02:31;13.48;;;5.55;;
51459;SDS011;37534;39.772;2.718;2023-07-22T09:05:01;12.00;;;5.63;;
51459;SDS011;37534;39.772;2.718;2023-07-22T09:07:27;5.03;;;4.15;;
51459;SDS011;37534;39.772;2.718;2023-07-22T09:09:53;16.55;;;5.03;;
51459;SDS011;37534;39.772;2.718;2023-07-22T09:12:21;11.75;;;4.68;;
51459;SDS011;37534;39.772;2.718;2023-07-22T09:14:48;8.15;;;4.60;;
51459;SDS011;37534;39.772;2.718;2023-07-22T09:17:15;13.90;;;4.80;;
51459;SDS011;37534;39.772;2.718;2023-07-22T09:19:40;8.10;;;4.68;;
51459;SDS011;37534;39.772;2.718;2023-07-22T09:22:07;8.00;;;4.88;;
51459;SDS011;37534;39.772;2.718;2023-07-22T09:24:33;9.45;;;4.95;;
51459;SDS011;37534;39.772;2.718;2023-07-22T09:26:58;13.70;;;4.85;;
51459;SDS011;37534;39.772;2.718;2023-07-22T09:29:35;8.25;;;4.65;;
51459;SDS011;37534;39.772;2.718;2023-07-22T09:32:02;6.88;;;4.07;;
51459;SDS011;37534;39.772;2.718;2023-07-22T09:34:28;8.60;;;4.63;;
51459;SDS011;37534;39.772;2.718;2023-07-22T09:36:58;6.40;;;4.22;;
51459;SDS011;37534;39.772;2.718;2023-07-22T09:39:28;9.90;;;4.65;;
51459;SDS011;37534;39.772;2.718;2023-07-22T09:41:55;10.13;;;5.18;;
51459;SDS011;37534;39.772;2.718;2023-07-22T09:44:21;11.15;;;5.03;;
51459;SDS011;37534;39.772;2.718;2023-07-22T09:46:48;11.63;;;5.18;;
51459;SDS011;37534;39.772;2.718;2023-07-22T09:49:15;6.38;;;3.70;;
51459;SDS011;37534;39.772;2.718;2023-07-22T09:51:42;7.82;;;4.72;;
51459;SDS011;37534;39.772;2.718;2023-07-22T09:54:08;10.07;;;5.05;;
51459;SDS011;37534;39.772;2.718;2023-07-22T09:56:46;11.93;;;4.68;;
51459;SDS011;37534;39.772;2.718;2023-07-22T09:59:14;12.77;;;5.22;;
51459;SDS011;37534;39.772;2.718;2023-07-22T10:01:43;12.05;;;4.95;;
51459;SDS011;37534;39.772;2.718;2023-07-22T10:04:12;12.93;;;4.82;;
51459;SDS011;37534;39.772;2.718;2023-07-22T10:06:40;9.95;;;4.53;;
51459;SDS011;37534;39.772;2.718;2023-07-22T10:09:07;12.45;;;5.03;;
51459;SDS011;37534;39.772;2.718;2023-07-22T10:11:36;10.98;;;4.03;;
51459;SDS011;37534;39.772;2.718;2023-07-22T10:14:04;8.50;;;4.30;;
51459;SDS011;37534;39.772;2.718;2023-07-22T10:16:30;17.05;;;4.75;;
51459;SDS011;37534;39.772;2.718;2023-07-22T10:18:57;11.25;;;4.72;;
51459;SDS011;37534;39.772;2.718;2023-07-22T10:21:25;12.38;;;4.57;;
51459;SDS011;37534;39.772;2.718;2023-07-22T10:23:53;13.63;;;4.85;;
51459;SDS011;37534;39.772;2.718;2023-07-22T10:26:20;7.95;;;4.30;;
51459;SDS011;37534;39.772;2.718;2023-07-22T10:28:46;11.45;;;4.43;;
51459;SDS011;37534;39.772;2.718;2023-07-22T10:31:13;6.22;;;4.35;;
51459;SDS011;37534;39.772;2.718;2023-07-22T10:33:39;21.08;;;4.63;;
51459;SDS011;37534;39.772;2.718;2023-07-22T10:36:06;9.45;;;4.78;;
51459;SDS011;37534;39.772;2.718;2023-07-22T10:38:34;14.88;;;4.53;;
51459;SDS011;37534;39.772;2.718;2023-07-22T10:41:01;12.93;;;4.90;;
51459;SDS011;37534;39.772;2.718;2023-07-22T10:43:36;10.02;;;3.92;;
51459;SDS011;37534;39.772;2.718;2023-07-22T10:46:12;12.18;;;4.05;;
51459;SDS011;37534;39.772;2.718;2023-07-22T10:48:41;14.32;;;4.75;;
51459;SDS011;37534;39.772;2.718;2023-07-22T10:51:09;19.45;;;4.53;;
51459;SDS011;37534;39.772;2.718;2023-07-22T10:53:43;6.88;;;3.85;;
51459;SDS011;37534;39.772;2.718;2023-07-22T10:56:21;9.18;;;3.83;;
51459;SDS011;37534;39.772;2.718;2023-07-22T11:15:19;9.52;;;4.28;;
51459;SDS011;37534;39.772;2.718;2023-07-22T11:17:29;7.80;;;4.20;;
51459;SDS011;37534;39.772;2.718;2023-07-22T11:20:00;9.38;;;4.07;;
51459;SDS011;37534;39.772;2.718;2023-07-22T11:22:27;16.03;;;5.07;;
51459;SDS011;37534;39.772;2.718;2023-07-22T11:24:55;15.07;;;4.72;;
51459;SDS011;37534;39.772;2.718;2023-07-22T11:27:25;7.47;;;4.07;;
51459;SDS011;37534;39.772;2.718;2023-07-22T11:29:50;5.85;;;3.95;;
51459;SDS011;37534;39.772;2.718;2023-07-22T11:32:17;11.73;;;4.43;;
51459;SDS011;37534;39.772;2.718;2023-07-22T11:34:44;9.60;;;5.10;;
51459;SDS011;37534;39.772;2.718;2023-07-22T11:37:10;11.50;;;4.97;;
51459;SDS011;37534;39.772;2.718;2023-07-22T11:39:36;17.02;;;7.85;;
51459;SDS011;37534;39.772;2.718;2023-07-22T11:42:03;8.32;;;4.93;;
51459;SDS011;37534;39.772;2.718;2023-07-22T11:44:29;15.55;;;5.53;;
51459;SDS011;37534;39.772;2.718;2023-07-22T11:46:56;8.38;;;5.00;;
51459;SDS011;37534;39.772;2.718;2023-07-22T11:49:25;8.35;;;4.78;;
51459;SDS011;37534;39.772;2.718;2023-07-22T11:51:53;6.38;;;3.58;;
51459;SDS011;37534;39.772;2.718;2023-07-22T11:54:21;8.70;;;4.25;;
51459;SDS011;37534;39.772;2.718;2023-07-22T11:56:47;8.43;;;4.30;;
51459;SDS011;37534;39.772;2.718;2023-07-22T11:59:13;14.65;;;4.35;;
51459;SDS011;37534;39.772;2.718;2023-07-22T12:01:38;8.80;;;4.07;;
51459;SDS011;37534;39.772;2.718;2023-07-22T12:04:09;6.43;;;4.03;;
51459;SDS011;37534;39.772;2.718;2023-07-22T12:06:36;9.48;;;4.13;;
51459;SDS011;37534;39.772;2.718;2023-07-22T12:09:02;6.78;;;3.90;;
51459;SDS011;37534;39.772;2.718;2023-07-22T12:11:28;11.27;;;4.55;;
51459;SDS011;37534;39.772;2.718;2023-07-22T12:14:10;9.73;;;4.85;;
51459;SDS011;37534;39.772;2.718;2023-07-22T12:16:38;12.50;;;5.38;;
51459;SDS011;37534;39.772;2.718;2023-07-22T12:19:06;12.73;;;4.63;;
51459;SDS011;37534;39.772;2.718;2023-07-22T12:21:32;7.43;;;4.88;;
51459;SDS011;37534;39.772;2.718;2023-07-22T12:23:58;6.72;;;4.28;;
51459;SDS011;37534;39.772;2.718;2023-07-22T12:26:24;11.27;;;4.35;;
51459;SDS011;37534;39.772;2.718;2023-07-22T12:28:50;7.07;;;4.35;;
51459;SDS011;37534;39.772;2.718;2023-07-22T12:31:15;10.23;;;4.25;;
51459;SDS011;37534;39.772;2.718;2023-07-22T12:33:41;18.17;;;4.47;;
51459;SDS011;37534;39.772;2.718;2023-07-22T12:36:07;19.15;;;4.63;;
51459;SDS011;37534;39.772;2.718;2023-07-22T12:38:33;13.73;;;4.68;;
51459;SDS011;37534;39.772;2.718;2023-07-22T12:40:59;15.25;;;4.50;;
51459;SDS011;37534;39.772;2.718;2023-07-22T12:43:25;11.63;;;4.88;;
51459;SDS011;37534;39.772;2.718;2023-07-22T12:45:51;10.40;;;4.55;;
51459;SDS011;37534;39.772;2.718;2023-07-22T12:48:16;11.40;;;5.65;;
51459;SDS011;37534;39.772;2.718;2023-07-22T12:50:42;12.63;;;4.70;;
51459;SDS011;37534;39.772;2.718;2023-07-22T12:53:09;17.42;;;4.13;;
51459;SDS011;37534;39.772;2.718;2023-07-22T12:55:34;9.07;;;4.20;;
51459;SDS011;37534;39.772;2.718;2023-07-22T12:58:00;10.45;;;3.92;;
51459;SDS011;37534;39.772;2.718;2023-07-22T13:00:26;7.75;;;4.65;;
51459;SDS011;37534;39.772;2.718;2023-07-22T13:02:52;9.65;;;3.83;;
51459;SDS011;37534;39.772;2.718;2023-07-22T13:05:18;12.88;;;4.88;;
51459;SDS011;37534;39.772;2.718;2023-07-22T13:07:44;6.07;;;3.38;;
51459;SDS011;37534;39.772;2.718;2023-07-22T13:10:10;8.90;;;4.28;;
51459;SDS011;37534;39.772;2.718;2023-07-22T13:12:37;14.30;;;4.53;;
51459;SDS011;37534;39.772;2.718;2023-07-22T13:15:04;19.58;;;4.70;;
51459;SDS011;37534;39.772;2.718;2023-07-22T13:17:30;12.57;;;4.47;;
51459;SDS011;37534;39.772;2.718;2023-07-22T13:19:57;7.88;;;4.22;;
51459;SDS011;37534;39.772;2.718;2023-07-22T13:22:23;19.27;;;4.60;;
51459;SDS011;37534;39.772;2.718;2023-07-22T13:24:48;9.80;;;4.30;;
51459;SDS011;37534;39.772;2.718;2023-07-22T13:27:14;7.35;;;4.05;;
51459;SDS011;37534;39.772;2.718;2023-07-22T13:29:40;13.27;;;4.40;;
51459;SDS011;37534;39.772;2.718;2023-07-22T13:32:05;8.65;;;5.25;;
51459;SDS011;37534;39.772;2.718;2023-07-22T13:34:31;9.52;;;3.92;;
51459;SDS011;37534;39.772;2.718;2023-07-22T13:36:57;19.27;;;5.18;;
51459;SDS011;37534;39.772;2.718;2023-07-22T13:39:23;7.38;;;4.35;;
51459;SDS011;37534;39.772;2.718;2023-07-22T13:41:49;9.00;;;4.65;;
51459;SDS011;37534;39.772;2.718;2023-07-22T13:44:15;8.27;;;5.10;;
51459;SDS011;37534;39.772;2.718;2023-07-22T13:46:41;7.18;;;4.70;;
51459;SDS011;37534;39.772;2.718;2023-07-22T13:49:07;9.90;;;4.45;;
51459;SDS011;37534;39.772;2.718;2023-07-22T13:51:33;9.50;;;3.72;;
51459;SDS011;37534;39.772;2.718;2023-07-22T13:53:58;9.05;;;4.28;;
51459;SDS011;37534;39.772;2.718;2023-07-22T13:56:24;8.32;;;4.85;;
51459;SDS011;37534;39.772;2.718;2023-07-22T13:58:50;17.95;;;4.63;;
51459;SDS011;37534;39.772;2.718;2023-07-22T14:01:15;10.18;;;4.25;;
51459;SDS011;37534;39.772;2.718;2023-07-22T14:03:41;6.50;;;3.70;;
51459;SDS011;37534;39.772;2.718;2023-07-22T14:06:06;9.43;;;4.47;;
51459;SDS011;37534;39.772;2.718;2023-07-22T14:08:33;10.48;;;4.72;;
51459;SDS011;37534;39.772;2.718;2023-07-22T14:10:59;8.18;;;4.28;;
51459;SDS011;37534;39.772;2.718;2023-07-22T14:13:25;13.65;;;4.78;;
51459;SDS011;37534;39.772;2.718;2023-07-22T14:15:50;5.85;;;4.97;;
51459;SDS011;37534;39.772;2.718;2023-07-22T14:18:16;8.68;;;4.63;;
51459;SDS011;37534;39.772;2.718;2023-07-22T14:20:45;8.63;;;5.15;;
51459;SDS011;37534;39.772;2.718;2023-07-22T14:23:11;17.63;;;4.57;;
51459;SDS011;37534;39.772;2.718;2023-07-22T14:25:37;8.63;;;4.38;;
51459;SDS011;37534;39.772;2.718;2023-07-22T14:28:03;8.57;;;4.82;;
51459;SDS011;37534;39.772;2.718;2023-07-22T14:30:29;12.95;;;5.03;;
51459;SDS011;37534;39.772;2.718;2023-07-22T14:32:54;14.85;;;4.70;;
51459;SDS011;37534;39.772;2.718;2023-07-22T14:35:20;9.50;;;4.85;;
51459;SDS011;37534;39.772;2.718;2023-07-22T14:37:46;6.03;;;3.95;;
51459;SDS011;37534;39.772;2.718;2023-07-22T14:40:12;14.65;;;4.20;;
51459;SDS011;37534;39.772;2.718;2023-07-22T14:42:38;17.73;;;4.20;;
51459;SDS011;37534;39.772;2.718;2023-07-22T14:45:04;7.85;;;4.07;;
51459;SDS011;37534;39.772;2.718;2023-07-22T14:47:30;8.35;;;3.83;;
51459;SDS011;37534;39.772;2.718;2023-07-22T14:49:56;11.45;;;4.43;;
51459;SDS011;37534;39.772;2.718;2023-07-22T14:52:21;8.32;;;3.70;;
51459;SDS011;37534;39.772;2.718;2023-07-22T14:54:48;10.52;;;4.80;;
51459;SDS011;37534;39.772;2.718;2023-07-22T14:57:14;14.07;;;4.55;;